Terminal Aerodrome Forecast
Issued by NWS

Home | Current Version | Previous Version | Text Only | Print | Product List | Glossary On
Versions: 1 2 3 4 5 6 7 8 9 10 11 12 13 14 15 16 17 18
000
FTPA31 PHFO 241011 AAA
TAFHLI
TAF AMD
PHLI 241011Z 2410/2506 07011KT P6SM VCSH BKN025 BKN045
     FM242000 08012G18KT P6SM FEW020 BKN035
     FM250500 08011KT P6SM SCT020 SCT035=

USA.gov is the U.S. government's official web portal to all federal, state and local government web resources and services.